Time;durP1;ratioP1;P1;durP2;ratioP2;P2;SDS_P1;SDS_P2;PMS_P1;PMS_P2;Temp;Humidity;BMP_temperature;BMP_pressure;BME280_temperature;BME280_humidity;BME280_pressure;Samples;Min_cycle;Max_cycle;Signal;HPM_P1;HPM_P2
2024/01/15 00:02:23;;;;;;;23.77;13.30;;;;;;;17.91;40.75;99511.66;4923867;28;20202;-77
2024/01/15 00:04:49;;;;;;;24.17;13.40;;;;;;;17.87;40.38;99519.41;4939317;28;20207;-76
2024/01/15 00:07:14;;;;;;;26.77;13.47;;;;;;;17.87;40.43;99522.25;4927087;29;20200;-77
2024/01/15 00:09:40;;;;;;;21.67;12.70;;;;;;;17.76;40.95;99524.19;4913581;29;20206;-77
2024/01/15 00:12:06;;;;;;;21.93;12.93;;;;;;;17.76;41.47;99526.22;4913193;29;20216;-74
2024/01/15 00:14:31;;;;;;;22.40;13.77;;;;;;;17.81;41.57;99518.09;4913434;29;20230;-77
2024/01/15 00:16:56;;;;;;;25.70;14.00;;;;;;;17.79;40.86;99519.72;4947748;28;20229;-77
2024/01/15 00:19:23;;;;;;;25.00;13.30;;;;;;;17.72;41.72;99509.06;4950902;28;20570;-77
2024/01/15 00:21:48;;;;;;;21.03;12.40;;;;;;;17.74;41.42;99511.50;4929245;29;20544;-77
2024/01/15 00:24:13;;;;;;;21.43;11.73;;;;;;;17.75;41.51;99513.97;4916139;29;20462;-77
2024/01/15 00:26:39;;;;;;;20.77;11.63;;;;;;;17.78;41.96;99509.50;4925794;29;20262;-77
2024/01/15 00:29:06;;;;;;;21.40;11.40;;;;;;;17.75;41.57;99513.97;4944386;28;20226;-76
2024/01/15 00:31:32;;;;;;;21.13;11.80;;;;;;;17.67;42.75;99518.00;4914717;29;20314;-77
2024/01/15 00:33:57;;;;;;;21.90;12.33;;;;;;;17.71;42.53;99512.31;4915768;29;20459;-76
2024/01/15 00:36:23;;;;;;;19.87;10.53;;;;;;;17.69;42.43;99504.16;4916390;29;20203;-76
2024/01/15 00:38:48;;;;;;;16.73;10.50;;;;;;;17.67;42.59;99509.44;4947149;29;20705;-77
2024/01/15 00:41:14;;;;;;;17.70;11.20;;;;;;;17.63;43.35;99516.31;4916068;29;20203;-76
2024/01/15 00:43:39;;;;;;;18.03;10.97;;;;;;;17.67;42.38;99522.88;4942155;28;20205;-77
2024/01/15 00:46:05;;;;;;;15.73;9.97;;;;;;;17.75;42.96;99502.56;4914443;29;20199;-76
2024/01/15 00:48:31;;;;;;;18.30;9.90;;;;;;;17.67;43.17;99514.31;4915583;29;20208;-77
2024/01/15 00:50:56;;;;;;;18.50;10.13;;;;;;;17.64;43.47;99517.94;4913779;29;20239;-76
2024/01/15 00:53:24;;;;;;;17.20;10.20;;;;;;;17.62;43.50;99515.50;4899911;29;20216;-77
2024/01/15 00:55:50;;;;;;;21.43;10.80;;;;;;;17.61;43.77;99528.13;4912022;29;20691;-77
2024/01/15 00:58:15;;;;;;;17.87;9.47;;;;;;;17.66;43.17;99530.59;4929344;29;20457;-76
2024/01/15 01:00:41;;;;;;;18.63;10.00;;;;;;;17.62;44.21;99520.38;4922240;29;20212;-77
2024/01/15 01:03:06;;;;;;;16.37;9.40;;;;;;;17.64;43.51;99521.63;4913489;29;20203;-76
2024/01/15 01:05:33;;;;;;;17.13;9.50;;;;;;;17.63;43.34;99525.72;4925249;29;20209;-77
2024/01/15 01:07:59;;;;;;;15.77;9.27;;;;;;;17.60;43.73;99508.56;4894188;29;20306;-77
2024/01/15 01:10:24;;;;;;;19.53;10.70;;;;;;;17.64;43.86;99507.38;4894940;29;20851;-76
2024/01/15 01:12:50;;;;;;;15.53;9.93;;;;;;;17.62;43.69;99506.94;4895987;29;20204;-76
2024/01/15 01:15:15;;;;;;;16.00;9.47;;;;;;;17.57;44.44;99497.91;4890732;29;20208;-77
2024/01/15 01:17:41;;;;;;;14.93;9.50;;;;;;;17.59;44.25;99502.00;4899880;29;20275;-77
2024/01/15 01:20:09;;;;;;;19.20;9.43;;;;;;;17.57;44.73;99486.50;4916941;29;20576;-77
2024/01/15 01:22:34;;;;;;;12.73;8.27;;;;;;;17.59;43.64;99482.03;4913652;29;20212;-77
2024/01/15 01:25:00;;;;;;;20.67;10.27;;;;;;;17.59;44.36;99486.91;4897583;29;20541;-77
2024/01/15 01:27:25;;;;;;;16.13;8.70;;;;;;;17.60;43.97;99483.66;4897758;29;20215;-77
2024/01/15 01:29:51;;;;;;;16.27;10.20;;;;;;;17.56;44.32;99487.72;4908810;29;20208;-77
2024/01/15 01:32:17;;;;;;;15.10;9.47;;;;;;;17.59;43.97;99490.59;4893429;29;20211;-76
2024/01/15 01:34:42;;;;;;;14.73;8.83;;;;;;;17.54;44.18;99496.66;4932758;29;20462;-77
2024/01/15 01:37:09;;;;;;;14.83;9.03;;;;;;;17.53;44.54;99494.19;4910539;29;20199;-77
2024/01/15 01:39:34;;;;;;;15.70;8.90;;;;;;;17.57;44.26;99495.06;4912713;29;20208;-77
2024/01/15 01:41:59;;;;;;;13.57;8.83;;;;;;;17.53;44.67;99489.31;4912006;29;20560;-76
2024/01/15 01:44:25;;;;;;;13.60;8.60;;;;;;;17.54;44.79;99496.66;4912469;29;20211;-77
2024/01/15 01:46:50;;;;;;;13.67;9.10;;;;;;;17.51;44.91;99499.50;4943333;29;20196;-77
2024/01/15 01:49:16;;;;;;;14.47;9.40;;;;;;;17.52;45.21;99498.28;4905048;29;20251;-77
2024/01/15 01:51:41;;;;;;;14.27;9.07;;;;;;;17.55;44.60;99498.31;4918619;29;20206;-77
2024/01/15 01:54:07;;;;;;;13.83;8.43;;;;;;;17.52;44.87;99495.41;4937989;28;20202;-77
2024/01/15 01:56:33;;;;;;;12.93;8.50;;;;;;;17.53;44.91;99477.09;4950890;28;20211;-77
2024/01/15 01:58:59;;;;;;;15.03;8.43;;;;;;;17.51;45.53;99476.66;4940126;28;20482;-77
2024/01/15 02:01:25;;;;;;;14.57;9.17;;;;;;;17.54;45.01;99470.16;4958259;28;20206;-77
2024/01/15 02:03:50;;;;;;;13.37;9.27;;;;;;;17.46;45.64;99469.28;4940971;28;20790;-77
2024/01/15 02:06:16;;;;;;;13.53;7.83;;;;;;;17.54;44.85;99468.13;4939357;28;20206;-77
2024/01/15 02:08:43;;;;;;;14.93;8.60;;;;;;;17.52;45.20;99473.44;4941512;28;20213;-77
2024/01/15 02:11:08;;;;;;;13.07;8.30;;;;;;;17.53;45.23;99465.66;4920866;28;20238;-77
2024/01/15 02:13:34;;;;;;;13.63;8.40;;;;;;;17.48;45.44;99464.00;4903658;29;20864;-77
2024/01/15 02:15:59;;;;;;;12.80;8.20;;;;;;;17.50;45.12;99457.91;4936069;28;20210;-77
2024/01/15 02:18:25;;;;;;;12.00;7.93;;;;;;;17.48;45.20;99458.31;4954209;28;20732;-77
2024/01/15 02:20:50;;;;;;;14.00;8.00;;;;;;;17.48;46.09;99461.16;4952607;28;20234;-77
2024/01/15 02:23:15;;;;;;;11.70;7.70;;;;;;;17.47;45.47;99464.41;4954039;28;20852;-77
2024/01/15 02:25:43;;;;;;;12.27;7.50;;;;;;;17.48;45.95;99455.44;4944239;28;20210;-77
2024/01/15 02:28:09;;;;;;;14.23;8.43;;;;;;;17.48;45.56;99452.59;4959690;28;20198;-77
2024/01/15 02:30:38;;;;;;;11.13;7.97;;;;;;;17.50;45.61;99460.75;4957885;28;20466;-76
2024/01/15 02:33:04;;;;;;;12.73;7.50;;;;;;;17.47;45.66;99467.25;4941540;28;20491;-77
2024/01/15 02:35:29;;;;;;;12.40;7.70;;;;;;;17.48;45.17;99452.59;4964648;28;20452;-77
2024/01/15 02:37:55;;;;;;;12.37;7.73;;;;;;;17.43;46.28;99446.41;4954116;28;20257;-77
2024/01/15 02:40:20;;;;;;;13.10;7.87;;;;;;;17.45;46.41;99459.06;4919637;28;20210;-76
2024/01/15 02:42:46;;;;;;;11.70;7.80;;;;;;;17.43;46.23;99461.50;4920071;29;20211;-77
2024/01/15 02:45:11;;;;;;;12.00;7.57;;;;;;;17.46;45.88;99459.91;4918856;28;20225;-77
2024/01/15 02:47:37;;;;;;;13.03;7.70;;;;;;;17.47;45.65;99465.22;4936962;28;20302;-77
2024/01/15 02:50:02;;;;;;;13.33;8.83;;;;;;;17.46;46.33;99465.63;4950010;28;20234;-76
2024/01/15 02:52:28;;;;;;;15.13;8.17;;;;;;;17.46;45.72;99468.47;4953796;28;20225;-77
2024/01/15 02:54:53;;;;;;;11.30;6.93;;;;;;;17.43;45.72;99466.38;4952609;28;20229;-77
2024/01/15 02:57:18;;;;;;;11.90;7.90;;;;;;;17.41;46.09;99455.38;4983912;28;20216;-77
2024/01/15 02:59:44;;;;;;;10.90;7.20;;;;;;;17.43;46.16;99454.97;4969206;28;20197;-76
2024/01/15 03:02:09;;;;;;;10.37;7.03;;;;;;;17.39;46.25;99440.69;4953153;28;20205;-77
2024/01/15 03:04:35;;;;;;;13.43;8.07;;;;;;;17.40;45.72;99450.06;4952562;28;20210;-76
2024/01/15 03:07:00;;;;;;;12.80;8.10;;;;;;;17.43;45.95;99449.28;4936576;28;20592;-76
2024/01/15 03:09:26;;;;;;;11.03;7.47;;;;;;;17.42;46.32;99442.75;4933711;28;20222;-78
2024/01/15 03:11:51;;;;;;;11.37;7.57;;;;;;;17.39;46.45;99446.41;4968987;28;20214;-77
2024/01/15 03:14:16;;;;;;;12.43;7.40;;;;;;;17.40;46.07;99453.72;4935885;28;20206;-77
2024/01/15 03:16:42;;;;;;;11.23;7.63;;;;;;;17.45;45.89;99441.94;4920167;29;20211;-74
2024/01/15 03:19:07;;;;;;;11.57;6.80;;;;;;;17.38;46.12;99449.59;4917666;29;20246;-74
2024/01/15 03:21:33;;;;;;;12.87;7.70;;;;;;;17.42;45.98;99454.19;4941309;28;20260;-74
2024/01/15 03:23:58;;;;;;;13.90;7.10;;;;;;;17.41;46.32;99446.00;4952622;28;20202;-74
2024/01/15 03:26:23;;;;;;;9.43;6.63;;;;;;;17.41;46.88;99440.28;4907628;29;20257;-74
2024/01/15 03:28:49;;;;;;;11.07;7.67;;;;;;;17.43;46.18;99429.31;4917169;29;20199;-74
2024/01/15 03:31:14;;;;;;;11.30;7.63;;;;;;;17.36;46.45;99432.06;4928305;29;20238;-74
2024/01/15 03:33:40;;;;;;;11.20;6.40;;;;;;;17.38;46.49;99426.78;4932549;29;20207;-74
2024/01/15 03:36:06;;;;;;;11.57;7.30;;;;;;;17.40;46.28;99428.06;4920168;28;20570;-74
2024/01/15 03:38:31;;;;;;;11.27;7.30;;;;;;;17.40;46.40;99419.50;4935554;28;20578;-73
2024/01/15 03:40:57;;;;;;;10.13;6.97;;;;;;;17.35;46.34;99419.81;4950029;28;20187;-74
2024/01/15 03:43:22;;;;;;;11.13;7.20;;;;;;;17.40;45.98;99422.34;4934793;29;20321;-74
2024/01/15 03:45:47;;;;;;;11.60;7.70;;;;;;;17.38;46.44;99419.06;4945497;28;20207;-74
2024/01/15 03:48:13;;;;;;;12.07;7.03;;;;;;;17.37;46.57;99417.41;4938800;28;20220;-74
2024/01/15 03:50:38;;;;;;;11.67;7.80;;;;;;;17.39;46.49;99419.88;4955633;28;20233;-75
2024/01/15 03:53:04;;;;;;;12.00;7.80;;;;;;;17.39;46.38;99409.31;4964241;28;20226;-74
2024/01/15 03:55:29;;;;;;;11.73;7.10;;;;;;;17.39;46.54;99403.59;4946477;28;20214;-74
2024/01/15 03:57:55;;;;;;;8.27;6.50;;;;;;;17.33;46.86;99402.28;4931880;28;20580;-74
2024/01/15 04:00:20;;;;;;;10.80;7.20;;;;;;;17.38;46.52;99398.25;4920284;28;20206;-74
2024/01/15 04:02:46;;;;;;;10.10;6.80;;;;;;;17.38;46.56;99396.22;4933141;28;20297;-74
2024/01/15 04:05:11;;;;;;;9.80;6.30;;;;;;;17.40;46.28;99395.88;4951966;28;20218;-74
2024/01/15 04:07:37;;;;;;;9.77;6.77;;;;;;;17.36;47.01;99392.94;4959013;28;20210;-74
2024/01/15 04:10:02;;;;;;;10.27;7.00;;;;;;;17.38;46.82;99387.66;4938990;28;20209;-74
2024/01/15 04:12:28;;;;;;;10.50;6.97;;;;;;;17.34;46.53;99388.84;4939365;28;20305;-74
2024/01/15 04:14:53;;;;;;;10.70;7.57;;;;;;;17.35;46.93;99391.28;4926310;28;20213;-74
2024/01/15 04:17:19;;;;;;;9.73;6.37;;;;;;;17.36;47.20;99377.88;4942409;28;20590;-74
2024/01/15 04:19:44;;;;;;;13.57;7.47;;;;;;;17.36;46.85;99397.84;4936944;28;20681;-74
2024/01/15 04:22:10;;;;;;;9.00;5.80;;;;;;;17.36;47.05;99386.44;4951320;28;20197;-74
2024/01/15 04:24:38;;;;;;;11.10;6.90;;;;;;;17.39;46.58;99392.19;4951389;28;20246;-75
2024/01/15 04:27:04;;;;;;;10.17;6.40;;;;;;;17.35;46.85;99391.28;4974245;28;20198;-75
2024/01/15 04:29:30;;;;;;;9.10;6.37;;;;;;;17.36;46.60;99375.81;4933982;29;20549;-74
2024/01/15 04:31:55;;;;;;;10.87;7.40;;;;;;;17.34;46.77;99388.84;4924129;28;20214;-74
2024/01/15 04:34:20;;;;;;;10.27;6.67;;;;;;;17.32;47.04;99385.56;4917123;28;20209;-74
2024/01/15 04:36:46;;;;;;;10.23;6.97;;;;;;;17.36;47.06;99375.00;4932098;29;20211;-74
2024/01/15 04:39:11;;;;;;;11.87;6.53;;;;;;;17.33;46.93;99376.63;4931620;29;20214;-74
2024/01/15 04:41:37;;;;;;;9.40;6.30;;;;;;;17.35;47.56;99391.28;4940608;28;20206;-74
2024/01/15 04:44:02;;;;;;;9.60;6.40;;;;;;;17.37;46.86;99376.66;4935713;28;20209;-75
2024/01/15 04:46:28;;;;;;;9.93;6.80;;;;;;;17.37;46.72;99376.66;4933224;28;20206;-74
2024/01/15 04:48:53;;;;;;;9.30;6.67;;;;;;;17.37;47.01;99371.78;4950366;28;20719;-74
2024/01/15 04:51:18;;;;;;;12.87;6.63;;;;;;;17.44;46.21;99374.69;4951610;28;20277;-75
2024/01/15 04:53:44;;;;;;;8.67;6.63;;;;;;;17.40;46.61;99373.03;4950982;28;20584;-74
2024/01/15 04:56:10;;;;;;;10.40;6.30;;;;;;;17.34;46.85;99369.69;4957421;28;20662;-74
2024/01/15 04:58:35;;;;;;;9.40;6.47;;;;;;;17.35;47.12;99365.63;4952216;28;20246;-74
2024/01/15 05:01:01;;;;;;;8.53;5.80;;;;;;;17.41;47.07;99363.25;4956266;28;20214;-74
2024/01/15 05:03:26;;;;;;;10.70;6.80;;;;;;;17.36;46.85;99357.91;4938033;28;20210;-74
2024/01/15 05:05:51;;;;;;;8.93;6.40;;;;;;;17.35;48.02;99362.78;4942380;28;20202;-74
2024/01/15 05:08:17;;;;;;;9.30;5.90;;;;;;;17.37;47.27;99353.81;4958298;28;20244;-74
2024/01/15 05:10:42;;;;;;;9.33;6.53;;;;;;;17.36;46.85;99349.34;4972771;28;20263;-74
2024/01/15 05:13:08;;;;;;;11.40;7.10;;;;;;;17.31;47.00;99344.78;4922341;29;20590;-74
2024/01/15 05:15:33;;;;;;;10.60;6.70;;;;;;;17.39;46.78;99348.56;4950443;28;20574;-74
2024/01/15 05:17:58;;;;;;;9.60;6.43;;;;;;;17.42;47.06;99351.47;4946403;28;20872;-74
2024/01/15 05:20:24;;;;;;;11.13;5.70;;;;;;;17.35;46.62;99339.94;4951565;28;20206;-74
2024/01/15 05:22:49;;;;;;;11.90;7.27;;;;;;;17.38;46.90;99336.31;4935658;28;20229;-74
2024/01/15 05:25:15;;;;;;;9.37;6.10;;;;;;;17.37;47.30;99340.38;4925424;28;20265;-74
2024/01/15 05:27:40;;;;;;;10.37;6.53;;;;;;;17.34;46.79;99335.47;4969638;28;20207;-74
2024/01/15 05:30:06;;;;;;;10.00;5.90;;;;;;;17.35;46.77;99328.53;4924066;28;20257;-74
2024/01/15 05:32:32;;;;;;;8.87;6.20;;;;;;;17.35;47.38;99328.53;4934408;29;20211;-74
2024/01/15 05:34:57;;;;;;;9.50;6.33;;;;;;;17.36;47.02;99318.75;4921673;29;20294;-70
2024/01/15 05:37:22;;;;;;;10.23;6.03;;;;;;;17.37;46.82;99319.59;4956628;28;20194;-69
2024/01/15 05:39:48;;;;;;;9.87;6.13;;;;;;;17.36;46.92;99315.91;4955175;28;20238;-70
2024/01/15 05:42:13;;;;;;;8.80;6.13;;;;;;;17.34;47.06;99326.06;4954720;28;20194;-70
2024/01/15 05:44:39;;;;;;;9.17;6.43;;;;;;;17.38;47.46;99322.03;4970533;28;20207;-71
2024/01/15 05:47:04;;;;;;;10.10;6.33;;;;;;;17.37;47.04;99319.59;4950419;28;20207;-70
2024/01/15 05:49:30;;;;;;;9.07;5.70;;;;;;;17.35;47.46;99319.97;4941043;28;20320;-71
2024/01/15 05:51:55;;;;;;;8.20;5.73;;;;;;;17.38;46.99;99312.66;4957116;28;20209;-70
2024/01/15 05:54:21;;;;;;;8.40;5.80;;;;;;;17.41;46.94;99317.63;4948671;28;20679;-70
2024/01/15 05:56:46;;;;;;;9.13;5.77;;;;;;;17.35;47.11;99313.47;4927210;28;20210;-70
2024/01/15 05:59:11;;;;;;;7.63;5.30;;;;;;;17.38;47.50;99307.78;4937867;28;20214;-70
2024/01/15 06:01:37;;;;;;;8.70;5.80;;;;;;;17.38;47.06;99310.63;4941404;28;20296;-70
2024/01/15 06:04:02;;;;;;;8.30;5.73;;;;;;;17.37;47.38;99303.31;4950147;28;20255;-70
2024/01/15 06:06:28;;;;;;;9.60;6.40;;;;;;;17.36;46.93;99298.78;4953632;28;20205;-71
2024/01/15 06:08:53;;;;;;;9.00;5.80;;;;;;;17.34;47.48;99295.53;4949632;28;20202;-70
2024/01/15 06:11:19;;;;;;;9.70;6.20;;;;;;;17.36;47.54;99295.94;4948989;28;20194;-70
2024/01/15 06:13:44;;;;;;;9.87;6.10;;;;;;;17.39;47.43;99288.66;4954387;28;20190;-70
2024/01/15 06:16:22;;;;;;;10.10;6.50;;;;;;;17.38;47.29;99286.97;4935859;28;20214;-71
2024/01/15 06:18:47;;;;;;;9.53;5.63;;;;;;;17.42;47.41;99279.31;4938783;28;20206;-71
2024/01/15 06:21:14;;;;;;;9.03;5.17;;;;;;;17.40;46.91;99276.03;4933504;28;20473;-70
2024/01/15 06:23:39;;;;;;;8.40;5.67;;;;;;;17.40;47.29;99291.09;4953439;28;20666;-69
2024/01/15 06:26:05;;;;;;;8.93;5.40;;;;;;;17.40;47.20;99302.53;4969922;28;20450;-74
2024/01/15 06:28:30;;;;;;;8.97;5.87;;;;;;;17.35;47.62;99302.06;4951123;28;20249;-71
2024/01/15 06:30:57;;;;;;;10.77;6.57;;;;;;;17.37;47.46;99303.31;4948779;28;20199;-70
2024/01/15 06:33:23;;;;;;;7.43;5.53;;;;;;;17.40;47.04;99301.72;4947131;28;20217;-71
2024/01/15 06:35:49;;;;;;;8.80;5.60;;;;;;;17.37;47.25;99303.31;4953349;28;20449;-74
2024/01/15 06:38:14;;;;;;;8.83;6.00;;;;;;;17.40;47.34;99287.44;4952394;28;20206;-70
2024/01/15 06:40:45;;;;;;;7.60;5.03;;;;;;;17.40;47.12;99285.41;4968791;28;20454;-70
2024/01/15 06:43:13;;;;;;;8.77;6.10;;;;;;;17.40;46.83;99285.41;4953873;28;20209;-70
2024/01/15 06:45:39;;;;;;;8.40;5.73;;;;;;;17.37;47.55;99280.47;4933106;28;20604;-73
2024/01/15 06:48:05;;;;;;;7.80;5.40;;;;;;;17.40;46.72;99267.47;4936702;28;20835;-74
2024/01/15 06:50:30;;;;;;;9.10;5.60;;;;;;;17.40;47.32;99265.44;4918692;28;21146;-73
2024/01/15 06:52:56;;;;;;;8.93;5.87;;;;;;;17.36;47.38;99278.00;4935435;29;20501;-73
2024/01/15 06:55:21;;;;;;;10.90;6.60;;;;;;;17.40;47.36;99271.13;4925425;28;20210;-73
2024/01/15 06:57:47;;;;;;;12.47;5.90;;;;;;;17.40;47.52;99276.84;4941785;29;20222;-73
2024/01/15 07:00:13;;;;;;;8.97;5.90;;;;;;;17.38;47.30;99281.28;4902384;29;20202;-73
2024/01/15 07:02:38;;;;;;;8.23;5.40;;;;;;;17.42;46.70;99274.44;4935885;28;20199;-73
2024/01/15 07:05:05;;;;;;;9.43;5.97;;;;;;;17.43;47.22;99270.34;4933663;29;20446;-73
2024/01/15 07:07:30;;;;;;;8.50;6.03;;;;;;;17.40;47.18;99279.69;4917386;29;20207;-73
2024/01/15 07:09:56;;;;;;;8.23;6.07;;;;;;;17.36;47.15;99273.09;4941118;28;20479;-73
2024/01/15 07:12:22;;;;;;;9.20;5.60;;;;;;;17.44;46.81;99274.84;4951823;28;20314;-73
2024/01/15 07:14:47;;;;;;;9.10;5.60;;;;;;;17.41;47.95;99275.63;4951256;28;20202;-73
2024/01/15 07:17:13;;;;;;;9.30;6.40;;;;;;;17.43;46.95;99293.19;4946621;28;20210;-73
2024/01/15 07:19:38;;;;;;;8.57;5.90;;;;;;;17.42;47.18;99291.53;4950805;28;20287;-73
2024/01/15 07:22:04;;;;;;;11.90;6.30;;;;;;;17.44;47.16;99296.81;4950910;28;20206;-73
2024/01/15 07:24:29;;;;;;;7.70;5.20;;;;;;;17.43;46.99;99301.75;4949241;28;20206;-74
2024/01/15 07:26:55;;;;;;;9.40;6.17;;;;;;;17.45;47.07;99307.06;4950051;28;20206;-73
2024/01/15 07:29:20;;;;;;;8.57;5.53;;;;;;;17.43;46.86;99306.59;4945908;28;20683;-73
2024/01/15 07:31:53;;;;;;;8.30;5.73;;;;;;;17.38;47.55;99315.50;4952634;28;20225;-73
2024/01/15 07:34:18;;;;;;;8.80;5.67;;;;;;;17.42;47.76;99322.09;4935414;28;20203;-73
2024/01/15 07:36:44;;;;;;;9.90;5.93;;;;;;;17.42;47.25;99322.09;4951458;28;20485;-73
2024/01/15 07:39:10;;;;;;;9.33;6.23;;;;;;;17.44;46.99;99325.38;4971691;28;20568;-73
2024/01/15 07:41:35;;;;;;;10.23;6.23;;;;;;;17.43;47.08;99323.72;4946578;28;20198;-73
2024/01/15 07:44:01;;;;;;;8.43;6.10;;;;;;;17.47;46.89;99330.28;4984417;28;20194;-73
2024/01/15 07:46:27;;;;;;;9.57;5.87;;;;;;;17.44;46.94;99334.75;4964020;28;20211;-73
2024/01/15 07:48:56;;;;;;;8.93;5.97;;;;;;;17.41;47.27;99323.31;4947535;28;20209;-73
2024/01/15 07:51:22;;;;;;;8.73;5.70;;;;;;;17.43;47.58;99324.56;4935047;28;20674;-73
2024/01/15 07:53:47;;;;;;;8.80;5.70;;;;;;;17.44;47.26;99326.19;4939437;28;20971;-73
2024/01/15 07:56:13;;;;;;;11.83;6.47;;;;;;;17.45;47.56;99333.53;4927381;28;20546;-74
2024/01/15 07:58:38;;;;;;;9.30;5.97;;;;;;;17.47;47.03;99330.28;4949125;28;20266;-74
2024/01/15 08:01:04;;;;;;;9.13;5.83;;;;;;;17.46;47.41;99328.66;4926458;28;20249;-74
2024/01/15 08:03:30;;;;;;;7.90;5.67;;;;;;;17.46;47.94;99328.66;4920813;28;20198;-74
2024/01/15 08:05:57;;;;;;;9.03;5.43;;;;;;;17.37;48.22;99320.41;4955481;28;20557;-74
2024/01/15 08:08:23;;;;;;;9.00;5.97;;;;;;;17.44;47.20;99317.63;4941145;28;20573;-75
2024/01/15 08:10:48;;;;;;;7.60;4.97;;;;;;;17.41;46.87;99323.31;4951112;28;20446;-74
2024/01/15 08:13:14;;;;;;;9.30;5.70;;;;;;;17.42;48.01;99320.06;4936534;28;20892;-74
2024/01/15 08:15:41;;;;;;;8.97;6.30;;;;;;;17.47;47.74;99308.28;4971487;28;20210;-74
2024/01/15 08:18:06;;;;;;;8.43;5.30;;;;;;;17.45;46.75;99299.28;4951980;28;20654;-74
2024/01/15 08:20:31;;;;;;;8.43;5.50;;;;;;;17.42;47.62;99311.50;4921324;28;20445;-74
2024/01/15 08:22:57;;;;;;;8.57;5.33;;;;;;;17.41;47.30;99315.56;4944047;28;20205;-74
2024/01/15 08:25:22;;;;;;;7.60;5.37;;;;;;;17.43;47.55;99307.44;4903667;29;20199;-74
2024/01/15 08:27:48;;;;;;;8.70;5.53;;;;;;;17.45;47.59;99319.25;4948305;28;20213;-74
2024/01/15 08:30:14;;;;;;;8.87;5.93;;;;;;;17.44;47.19;99313.94;4953941;28;20205;-74
2024/01/15 08:32:42;;;;;;;8.90;6.27;;;;;;;17.44;47.15;99309.06;4933019;29;20227;-75
2024/01/15 08:35:08;;;;;;;9.70;6.00;;;;;;;17.47;47.31;99308.28;4917604;29;20257;-74
2024/01/15 08:37:34;;;;;;;8.07;5.40;;;;;;;17.47;46.94;99311.13;4933710;28;20461;-74
2024/01/15 08:39:59;;;;;;;9.43;5.63;;;;;;;17.45;47.16;99293.59;4901815;29;20540;-74
2024/01/15 08:42:24;;;;;;;6.87;5.20;;;;;;;17.49;47.26;99296.44;4916808;29;20205;-74
2024/01/15 08:44:50;;;;;;;8.00;5.90;;;;;;;17.46;47.62;99291.56;4943211;28;20205;-74
2024/01/15 08:47:16;;;;;;;9.07;6.17;;;;;;;17.46;46.96;99274.44;4919894;28;20928;-75
2024/01/15 08:49:43;;;;;;;10.77;6.63;;;;;;;17.46;47.35;99266.69;4935810;28;20242;-74
2024/01/15 08:52:08;;;;;;;8.43;5.40;;;;;;;17.55;46.97;99264.28;4952231;28;20674;-74
2024/01/15 08:54:34;;;;;;;8.57;5.73;;;;;;;17.50;47.23;99283.84;4916414;28;20523;-74
2024/01/15 08:56:59;;;;;;;7.93;5.33;;;;;;;17.46;46.65;99272.38;4947940;28;20211;-74
2024/01/15 08:59:25;;;;;;;8.20;5.27;;;;;;;17.45;47.63;99270.75;4947960;28;20652;-74
2024/01/15 09:01:52;;;;;;;9.60;5.43;;;;;;;17.47;47.44;99265.50;4958291;28;20213;-74
2024/01/15 09:04:17;;;;;;;8.13;5.47;;;;;;;17.44;47.54;99269.13;4966585;28;20453;-74
2024/01/15 09:06:48;;;;;;;8.57;5.47;;;;;;;17.46;47.15;99263.03;4947387;28;20457;-78
2024/01/15 09:09:17;;;;;;;6.30;5.30;;;;;;;17.47;47.52;99267.50;4915998;29;20266;-76
2024/01/15 09:11:42;;;;;;;8.63;6.10;;;;;;;17.44;47.45;99265.44;4916162;29;20482;-77
2024/01/15 09:14:09;;;;;;;8.70;5.40;;;;;;;17.45;46.88;99255.69;4943969;28;20466;-77
2024/01/15 09:16:34;;;;;;;8.40;5.60;;;;;;;17.45;47.57;99247.94;4950304;28;20213;-78
2024/01/15 09:19:00;;;;;;;8.10;5.50;;;;;;;17.46;47.32;99243.06;4950635;28;20910;-76
2024/01/15 09:21:25;;;;;;;9.07;6.00;;;;;;;17.51;47.11;99234.91;4934720;28;20206;-76
2024/01/15 09:23:51;;;;;;;8.67;5.03;;;;;;;17.49;47.12;99242.25;4935003;28;20210;-77
2024/01/15 09:26:17;;;;;;;8.47;5.90;;;;;;;17.54;46.98;99227.59;4927503;29;20298;-76
2024/01/15 09:28:42;;;;;;;8.83;5.10;;;;;;;17.50;47.43;99239.00;4947607;28;20210;-77
2024/01/15 09:31:07;;;;;;;6.67;5.10;;;;;;;17.47;47.65;99241.84;4951388;28;20209;-77
2024/01/15 09:33:33;;;;;;;8.60;5.73;;;;;;;17.46;47.47;99257.31;4950814;28;20244;-78
2024/01/15 09:36:03;;;;;;;8.10;5.50;;;;;;;17.48;47.28;99250.00;4950797;28;20203;-78
2024/01/15 09:38:29;;;;;;;6.97;5.20;;;;;;;17.45;47.46;99252.84;4935157;28;21009;-77
2024/01/15 09:40:55;;;;;;;8.50;5.20;;;;;;;17.46;47.73;99248.75;4954777;28;20453;-77
2024/01/15 09:43:20;;;;;;;7.40;4.93;;;;;;;17.47;47.76;99251.22;4953384;28;20934;-78
2024/01/15 09:45:46;;;;;;;8.40;5.13;;;;;;;17.48;47.59;99252.03;4922555;28;20211;-77
2024/01/15 09:48:12;;;;;;;7.73;5.53;;;;;;;17.48;47.01;99252.03;4956446;28;20218;-77
2024/01/15 09:50:37;;;;;;;8.37;5.73;;;;;;;17.48;47.42;99264.25;4957442;28;20686;-78
2024/01/15 09:53:04;;;;;;;8.73;4.90;;;;;;;17.49;47.82;99250.78;4938456;28;20524;-77
2024/01/15 09:55:29;;;;;;;8.40;5.53;;;;;;;17.44;47.71;99252.00;4919610;28;20214;-77
2024/01/15 09:57:55;;;;;;;7.00;5.00;;;;;;;17.49;47.30;99247.94;4941660;29;20470;-77
2024/01/15 10:00:21;;;;;;;9.47;6.10;;;;;;;17.47;48.15;99248.38;4919569;28;20203;-77
2024/01/15 10:02:46;;;;;;;7.70;5.47;;;;;;;17.46;47.47;99241.00;4945242;28;20234;-77
2024/01/15 10:05:12;;;;;;;8.90;5.13;;;;;;;17.55;47.19;99234.97;4941318;28;20296;-76
2024/01/15 10:07:37;;;;;;;8.27;5.33;;;;;;;17.45;47.74;99225.09;4956024;28;20209;-76
2024/01/15 10:10:03;;;;;;;7.30;4.80;;;;;;;17.45;47.70;99224.31;4940341;28;20637;-77
2024/01/15 10:12:29;;;;;;;7.33;5.27;;;;;;;17.48;47.50;99218.63;4940044;28;20221;-76
2024/01/15 10:14:56;;;;;;;6.73;5.00;;;;;;;17.49;47.44;99220.25;4960042;28;20325;-70
2024/01/15 10:17:21;;;;;;;8.50;5.53;;;;;;;17.51;47.69;99219.84;4966007;28;20209;-70
2024/01/15 10:19:47;;;;;;;7.70;5.00;;;;;;;17.47;47.93;99213.31;4964342;28;20982;-70
2024/01/15 10:22:14;;;;;;;6.83;4.50;;;;;;;17.53;47.30;99209.66;4938670;28;20207;-70
2024/01/15 10:24:40;;;;;;;10.10;6.13;;;;;;;17.51;47.22;99209.22;4943884;28;20206;-70
2024/01/15 10:27:07;;;;;;;7.83;5.37;;;;;;;17.51;47.53;99200.66;4960515;28;20461;-70
2024/01/15 10:29:32;;;;;;;7.30;5.27;;;;;;;17.50;47.94;99198.25;4941515;28;20471;-70
2024/01/15 10:31:58;;;;;;;7.17;4.70;;;;;;;17.54;47.37;99197.03;4951725;28;20523;-70
2024/01/15 10:34:24;;;;;;;9.10;5.30;;;;;;;17.52;47.05;99208.03;4918836;29;20210;-70
2024/01/15 10:36:55;;;;;;;7.00;5.20;;;;;;;17.45;47.62;99196.56;4919038;29;20458;-71
2024/01/15 10:39:23;;;;;;;7.30;4.80;;;;;;;17.45;48.07;99190.88;4937176;28;20553;-69
2024/01/15 10:41:49;;;;;;;7.60;5.30;;;;;;;17.50;47.52;99193.34;4953212;28;20445;-70
2024/01/15 10:44:15;;;;;;;8.23;5.50;;;;;;;17.56;47.22;99200.28;4946675;28;20466;-70
2024/01/15 10:46:40;;;;;;;7.20;5.03;;;;;;;17.56;47.41;99194.59;4950672;28;20446;-71
2024/01/15 10:49:06;;;;;;;8.00;5.20;;;;;;;17.54;47.66;99199.88;4917819;28;20281;-73
2024/01/15 10:51:32;;;;;;;7.37;5.00;;;;;;;17.47;47.57;99199.88;4933844;28;20249;-70
2024/01/15 10:53:57;;;;;;;9.20;4.80;;;;;;;17.49;47.66;99203.13;4953440;28;20809;-71
2024/01/15 10:56:23;;;;;;;7.60;5.03;;;;;;;17.49;47.96;99205.16;4952700;28;20626;-73
2024/01/15 10:58:49;;;;;;;8.17;5.20;;;;;;;17.51;47.22;99199.88;4935172;28;20203;-70
2024/01/15 11:01:15;;;;;;;6.90;4.90;;;;;;;17.56;47.41;99206.00;4936418;28;20203;-71
2024/01/15 11:03:40;;;;;;;8.10;5.53;;;;;;;17.56;47.95;99211.69;4937147;28;20832;-72
2024/01/15 11:06:17;;;;;;;8.50;5.27;;;;;;;17.56;47.29;99208.84;4936966;28;20206;-70
2024/01/15 11:08:43;;;;;;;7.00;5.00;;;;;;;17.53;47.56;99209.66;4933243;28;20214;-70
2024/01/15 11:11:09;;;;;;;8.50;5.30;;;;;;;17.55;47.74;99198.66;4969198;28;20488;-69
2024/01/15 11:13:38;;;;;;;7.10;4.70;;;;;;;17.53;47.37;99200.28;4948520;28;20218;-70
2024/01/15 11:16:05;;;;;;;7.27;4.83;;;;;;;17.54;47.60;99194.19;4970135;28;20473;-69
2024/01/15 11:18:39;;;;;;;8.90;5.70;;;;;;;17.51;48.30;99194.16;4969497;28;20452;-69
2024/01/15 11:21:17;;;;;;;6.40;4.20;;;;;;;17.52;47.42;99195.78;4918582;29;21034;-71
2024/01/15 11:23:53;;;;;;;6.33;4.40;;;;;;;17.53;47.69;99201.09;4965875;28;20465;-69